createdAt,value
2022-11-17T00:02:15.984Z,12.63
2022-11-17T00:04:47.023Z,12.60
2022-11-17T00:07:15.223Z,12.61
2022-11-17T00:09:43.380Z,12.58
2022-11-17T00:12:32.863Z,12.53
2022-11-17T00:15:01.316Z,12.61
2022-11-17T00:17:29.287Z,12.56
2022-11-17T00:20:16.409Z,12.60
2022-11-17T00:22:44.437Z,12.48
2022-11-17T00:25:12.498Z,12.49
2022-11-17T00:27:40.548Z,12.53
2022-11-17T00:30:29.661Z,12.56
2022-11-17T00:33:19.520Z,12.53
2022-11-17T00:35:53.244Z,12.48
2022-11-17T00:38:21.718Z,12.46
2022-11-17T00:40:49.720Z,12.49
2022-11-17T00:43:17.742Z,12.50
2022-11-17T00:45:45.766Z,12.51
2022-11-17T00:48:13.910Z,12.53
2022-11-17T00:50:41.957Z,12.22
2022-11-17T00:53:11.358Z,12.35
2022-11-17T00:55:39.421Z,12.45
2022-11-17T00:58:07.586Z,12.44
2022-11-17T01:00:35.580Z,12.32
2022-11-17T01:03:03.640Z,12.35
2022-11-17T01:05:33.190Z,12.42
2022-11-17T01:08:01.339Z,12.36
2022-11-17T01:10:30.809Z,12.19
2022-11-17T01:12:58.808Z,12.37
2022-11-17T01:15:26.841Z,12.30
2022-11-17T01:17:54.898Z,12.30
2022-11-17T01:20:22.954Z,12.17
2022-11-17T01:22:51.017Z,12.16
2022-11-17T01:25:19.066Z,12.06
2022-11-17T01:27:49.277Z,12.28
2022-11-17T01:30:18.440Z,12.33
2022-11-17T01:32:46.487Z,12.36
2022-11-17T01:35:14.501Z,12.37
2022-11-17T01:37:42.524Z,12.32
2022-11-17T01:40:13.269Z,12.31
2022-11-17T01:42:41.351Z,12.38
2022-11-17T01:45:21.788Z,12.45
2022-11-17T01:47:52.924Z,12.49
2022-11-17T01:50:27.157Z,12.49
2022-11-17T01:52:59.607Z,12.43
2022-11-17T01:55:33.023Z,12.34
2022-11-17T01:58:04.266Z,12.12
2022-11-17T02:00:33.952Z,12.32
2022-11-17T02:03:02.323Z,12.29
2022-11-17T02:05:38.916Z,12.33
2022-11-17T02:08:08.070Z,12.36
2022-11-17T02:10:37.394Z,12.28
2022-11-17T02:13:06.241Z,12.32
2022-11-17T02:15:35.668Z,12.27
2022-11-17T02:18:04.075Z,12.29
2022-11-17T02:20:51.734Z,12.26
2022-11-17T02:23:47.985Z,12.26
2022-11-17T02:26:30.091Z,12.26
2022-11-17T02:29:05.312Z,12.17
2022-11-17T02:31:40.385Z,12.13
2022-11-17T02:34:19.233Z,12.29
2022-11-17T02:36:55.997Z,12.36
2022-11-17T02:39:27.664Z,12.36
2022-11-17T02:42:03.110Z,12.38
2022-11-17T02:44:37.167Z,12.37
2022-11-17T02:47:10.324Z,12.31
2022-11-17T02:49:42.397Z,12.15
2022-11-17T02:52:10.777Z,12.21
2022-11-17T02:54:38.772Z,12.08
2022-11-17T02:57:06.866Z,12.13
2022-11-17T02:59:41.480Z,12.13
2022-11-17T03:02:34.548Z,12.19
2022-11-17T03:05:10.989Z,12.14
2022-11-17T03:08:02.822Z,12.15
2022-11-17T03:10:44.845Z,12.22
2022-11-17T03:13:20.060Z,12.03
2022-11-17T03:15:55.242Z,12.08
2022-11-17T03:18:30.387Z,11.97
2022-11-17T03:21:09.841Z,12.01
2022-11-17T03:23:42.758Z,11.99
2022-11-17T03:26:14.804Z,12.05
2022-11-17T03:28:43.970Z,12.08
2022-11-17T03:31:16.411Z,11.92
2022-11-17T03:33:49.576Z,11.97
2022-11-17T03:36:22.256Z,11.93
2022-11-17T03:38:57.132Z,12.01
2022-11-17T03:41:26.947Z,11.87
2022-11-17T03:43:55.983Z,12.03
2022-11-17T03:46:27.773Z,12.01
2022-11-17T03:49:01.033Z,11.94
2022-11-17T03:51:33.179Z,11.96
2022-11-17T03:54:02.114Z,11.98
2022-11-17T03:56:36.766Z,11.99
2022-11-17T03:59:11.284Z,11.97
2022-11-17T04:01:41.206Z,12.00
2022-11-17T04:04:15.465Z,11.89
2022-11-17T04:06:43.526Z,11.93
2022-11-17T04:09:11.591Z,11.97
2022-11-17T04:11:56.943Z,11.91
2022-11-17T04:14:42.305Z,11.99
2022-11-17T04:17:11.842Z,11.81
2022-11-17T04:19:39.975Z,11.79
2022-11-17T04:22:08.074Z,11.85
2022-11-17T04:24:36.068Z,11.90
2022-11-17T04:27:21.373Z,11.96
2022-11-17T04:29:49.418Z,11.76
2022-11-17T04:32:18.825Z,11.61
2022-11-17T04:34:46.837Z,11.59
2022-11-17T04:37:18.261Z,11.73
2022-11-17T04:39:46.793Z,11.76
2022-11-17T04:42:13.822Z,11.71
2022-11-17T04:44:41.877Z,11.72
2022-11-17T04:47:09.932Z,11.92
2022-11-17T04:49:39.366Z,11.89
2022-11-17T04:52:07.401Z,11.84
2022-11-17T04:54:35.405Z,11.88
2022-11-17T04:57:03.482Z,11.75
2022-11-17T04:59:31.522Z,11.81
2022-11-17T05:02:04.349Z,11.74
2022-11-17T05:04:51.311Z,11.76
2022-11-17T05:07:20.783Z,11.72
2022-11-17T05:09:48.811Z,11.72
2022-11-17T05:12:34.096Z,11.69
2022-11-17T05:15:02.153Z,11.69
2022-11-17T05:17:29.165Z,11.51
2022-11-17T05:19:57.674Z,11.54
2022-11-17T05:22:44.378Z,11.43
2022-11-17T05:25:12.419Z,11.37
2022-11-17T05:27:40.476Z,11.41
2022-11-17T05:30:09.887Z,11.46
2022-11-17T05:32:37.923Z,11.40
2022-11-17T05:35:06.741Z,11.47
2022-11-17T05:37:36.166Z,11.45
2022-11-17T05:40:04.341Z,11.33
2022-11-17T05:42:32.366Z,11.16
2022-11-17T05:45:00.469Z,11.19
2022-11-17T05:47:28.470Z,11.20
2022-11-17T05:49:56.480Z,11.24
2022-11-17T05:52:24.505Z,11.27
2022-11-17T05:54:53.977Z,11.41
2022-11-17T05:57:28.232Z,11.43
2022-11-17T05:59:59.690Z,11.25
2022-11-17T06:02:32.909Z,11.25
2022-11-17T06:05:00.960Z,11.30
2022-11-17T06:07:29.490Z,11.32
2022-11-17T06:09:59.063Z,11.27
2022-11-17T06:12:27.046Z,11.29
2022-11-17T06:14:55.057Z,11.19
2022-11-17T06:17:28.808Z,11.30
2022-11-17T06:20:01.659Z,11.11
2022-11-17T06:22:31.300Z,11.03
2022-11-17T06:25:03.013Z,11.14
2022-11-17T06:27:32.759Z,11.09
2022-11-17T06:30:03.345Z,11.23
2022-11-17T06:32:32.762Z,11.04
2022-11-17T06:35:02.540Z,11.04
2022-11-17T06:37:30.541Z,10.88
2022-11-17T06:39:59.970Z,10.92
2022-11-17T06:42:41.857Z,10.90
2022-11-17T06:45:10.909Z,10.89
2022-11-17T06:47:38.992Z,10.65
2022-11-17T06:50:08.383Z,10.70
2022-11-17T06:52:36.445Z,10.75
2022-11-17T06:55:06.639Z,10.68
2022-11-17T06:57:34.710Z,10.81
2022-11-17T07:00:02.847Z,10.78
2022-11-17T07:02:32.401Z,10.50
2022-11-17T07:05:00.474Z,10.65
2022-11-17T07:07:28.605Z,10.77
2022-11-17T07:09:56.812Z,10.77
2022-11-17T07:12:26.260Z,10.81
2022-11-17T07:14:54.276Z,10.79
2022-11-17T07:17:22.347Z,10.74
2022-11-17T07:19:50.407Z,10.63
2022-11-17T07:22:18.500Z,10.81
2022-11-17T07:24:46.588Z,10.68
2022-11-17T07:27:14.629Z,10.63
2022-11-17T07:29:44.046Z,10.51
2022-11-17T07:32:13.916Z,10.50
2022-11-17T07:34:42.662Z,10.56
2022-11-17T07:37:10.824Z,10.67
2022-11-17T07:39:38.871Z,10.66
2022-11-17T07:42:07.075Z,10.68
2022-11-17T07:44:35.558Z,10.49
2022-11-17T07:47:05.014Z,10.43
2022-11-17T07:49:33.139Z,10.51
2022-11-17T07:52:02.646Z,10.49
2022-11-17T07:54:30.679Z,10.31
2022-11-17T07:56:58.697Z,10.56
2022-11-17T07:59:26.760Z,10.48
2022-11-17T08:01:54.866Z,10.26
2022-11-17T08:04:24.359Z,10.04
2022-11-17T08:06:52.442Z,10.34
2022-11-17T08:09:20.507Z,10.28
2022-11-17T08:11:48.606Z,10.20
2022-11-17T08:14:16.659Z,10.39
2022-11-17T08:16:44.734Z,10.42
2022-11-17T08:19:14.357Z,10.30
2022-11-17T08:21:43.791Z,10.25
2022-11-17T08:24:13.391Z,10.39
2022-11-17T08:26:41.442Z,10.58
2022-11-17T08:29:09.687Z,10.44
2022-11-17T08:31:37.796Z,10.38
2022-11-17T08:34:05.904Z,10.53
2022-11-17T08:36:33.999Z,10.55
2022-11-17T08:39:03.659Z,10.43
2022-11-17T08:41:32.176Z,10.40
2022-11-17T08:44:00.414Z,10.42
2022-11-17T08:46:28.851Z,10.53
2022-11-17T08:48:57.376Z,10.35
2022-11-17T08:51:27.249Z,10.42
2022-11-17T08:53:55.459Z,10.53
2022-11-17T08:56:25.012Z,10.50
2022-11-17T08:58:53.054Z,10.37
2022-11-17T09:01:21.179Z,10.29
2022-11-17T09:03:49.812Z,10.53
2022-11-17T09:06:20.058Z,10.48
2022-11-17T09:08:48.752Z,10.55
2022-11-17T09:11:17.172Z,10.60
2022-11-17T09:13:47.078Z,10.37
2022-11-17T09:16:16.995Z,10.37
2022-11-17T09:18:45.518Z,10.42
2022-11-17T09:21:16.465Z,10.33
2022-11-17T09:23:44.703Z,10.43
2022-11-17T09:26:14.493Z,10.42
2022-11-17T09:28:42.988Z,10.52
2022-11-17T09:31:14.279Z,10.30
2022-11-17T09:33:43.051Z,10.21
2022-11-17T09:36:11.952Z,10.23
2022-11-17T09:38:40.943Z,10.25
2022-11-17T09:41:27.983Z,10.28
2022-11-17T09:44:05.086Z,10.35
2022-11-17T09:46:51.627Z,10.31
2022-11-17T09:49:33.890Z,10.23
2022-11-17T09:52:06.426Z,10.15
2022-11-17T09:54:42.181Z,10.24
2022-11-17T09:57:21.063Z,10.14
2022-11-17T09:59:55.533Z,9.96
2022-11-17T10:02:25.595Z,10.12
2022-11-17T10:04:53.746Z,10.27
2022-11-17T10:07:24.471Z,10.10
2022-11-17T10:09:54.697Z,10.24
2022-11-17T10:12:27.015Z,10.12
2022-11-17T10:14:55.797Z,10.14
2022-11-17T10:17:25.261Z,10.26
2022-11-17T10:19:53.350Z,10.14
2022-11-17T10:22:34.519Z,10.27
2022-11-17T10:25:02.873Z,10.20
2022-11-17T10:27:33.091Z,10.29
2022-11-17T10:30:02.762Z,10.24
2022-11-17T10:32:35.404Z,10.19
2022-11-17T10:35:17.774Z,10.14
2022-11-17T10:37:55.432Z,10.19
2022-11-17T10:40:26.356Z,10.18
2022-11-17T10:43:06.758Z,10.18
2022-11-17T10:45:35.345Z,10.08
2022-11-17T10:48:21.222Z,9.90
2022-11-17T10:50:54.018Z,10.12
2022-11-17T10:53:32.156Z,10.15
2022-11-17T10:56:07.638Z,9.94
2022-11-17T10:59:11.270Z,10.06
2022-11-17T11:01:41.902Z,10.06
2022-11-17T11:04:30.190Z,10.20
2022-11-17T11:07:09.690Z,10.28
2022-11-17T11:09:43.027Z,10.24
2022-11-17T11:12:17.238Z,10.36
2022-11-17T11:14:49.822Z,10.29
2022-11-17T11:17:20.311Z,9.92
2022-11-17T11:19:53.578Z,10.09
2022-11-17T11:22:31.436Z,10.18
2022-11-17T11:25:10.713Z,10.33
2022-11-17T11:27:58.276Z,10.03
2022-11-17T11:30:27.332Z,10.21
2022-11-17T11:33:05.714Z,10.26
2022-11-17T11:35:46.642Z,9.94
2022-11-17T11:38:31.194Z,10.20
2022-11-17T11:41:22.250Z,10.16
2022-11-17T11:44:00.443Z,10.36
2022-11-17T11:46:40.823Z,10.39
2022-11-17T11:49:21.318Z,10.12
2022-11-17T11:51:52.558Z,10.21
2022-11-17T11:54:28.922Z,10.19
2022-11-17T11:56:57.408Z,10.18
2022-11-17T11:59:37.758Z,10.12
2022-11-17T12:02:24.309Z,10.16
2022-11-17T12:05:00.455Z,10.06
2022-11-17T12:07:38.307Z,10.21
2022-11-17T12:10:12.228Z,10.25
2022-11-17T12:12:41.890Z,10.25
2022-11-17T12:15:32.436Z,10.16
2022-11-17T12:18:04.064Z,10.04
2022-11-17T12:21:02.604Z,10.07
2022-11-17T12:24:06.289Z,10.21
2022-11-17T12:26:36.571Z,10.33
2022-11-17T12:29:31.974Z,10.31
2022-11-17T12:32:02.168Z,10.37
2022-11-17T12:34:32.426Z,10.31
2022-11-17T12:37:30.697Z,10.42
2022-11-17T12:40:06.763Z,10.33
2022-11-17T12:42:37.011Z,10.42
2022-11-17T12:45:10.716Z,10.38
2022-11-17T12:47:40.412Z,10.42
2022-11-17T12:50:42.582Z,10.78
2022-11-17T12:53:39.074Z,10.83
2022-11-17T12:56:31.802Z,10.96
2022-11-17T12:59:14.991Z,10.87
2022-11-17T13:01:48.525Z,10.78
2022-11-17T13:04:19.891Z,10.78
2022-11-17T13:07:02.275Z,10.72
2022-11-17T13:09:32.102Z,10.77
2022-11-17T13:12:02.282Z,11.00
2022-11-17T13:14:32.793Z,10.84
2022-11-17T13:17:01.816Z,10.69
2022-11-17T13:19:37.279Z,10.75
2022-11-17T13:22:14.760Z,10.73
2022-11-17T13:24:45.154Z,10.71
2022-11-17T13:27:22.797Z,10.71
2022-11-17T13:29:52.822Z,10.85
2022-11-17T13:32:23.854Z,10.97
2022-11-17T13:34:56.445Z,11.31
2022-11-17T13:37:26.155Z,11.29
2022-11-17T13:39:59.569Z,11.44
2022-11-17T13:42:30.980Z,11.30
2022-11-17T13:45:03.954Z,11.28
2022-11-17T13:47:46.942Z,11.36
2022-11-17T13:50:36.997Z,11.34
2022-11-17T13:53:14.428Z,11.43
2022-11-17T13:55:46.573Z,11.42
2022-11-17T13:58:36.327Z,11.13
2022-11-17T14:01:05.881Z,11.04
2022-11-17T14:03:37.345Z,11.22
2022-11-17T14:06:07.809Z,11.24
2022-11-17T14:08:36.929Z,10.93
2022-11-17T14:11:23.734Z,10.90
2022-11-17T14:13:53.988Z,10.83
2022-11-17T14:16:27.678Z,10.89
2022-11-17T14:19:01.663Z,10.87
2022-11-17T14:21:30.723Z,11.04
2022-11-17T14:24:13.019Z,10.97
2022-11-17T14:26:45.966Z,11.13
2022-11-17T14:29:14.352Z,11.12
2022-11-17T14:31:43.856Z,10.87
2022-11-17T14:34:12.082Z,10.70
2022-11-17T14:36:41.129Z,10.70
2022-11-17T14:39:15.296Z,10.77
2022-11-17T14:41:44.036Z,10.90
2022-11-17T14:44:12.513Z,10.96
2022-11-17T14:46:40.735Z,10.74
2022-11-17T14:49:10.950Z,10.83
2022-11-17T14:51:39.011Z,11.03
2022-11-17T14:54:07.174Z,11.12
2022-11-17T14:56:35.885Z,10.98
2022-11-17T14:59:03.921Z,10.92
2022-11-17T15:01:34.667Z,11.00
2022-11-17T15:04:27.379Z,11.07
2022-11-17T15:06:54.020Z,10.90
2022-11-17T15:09:22.747Z,10.96
2022-11-17T15:11:52.055Z,10.87
2022-11-17T15:14:20.369Z,11.02
2022-11-17T15:16:48.389Z,11.11
2022-11-17T15:19:16.439Z,11.02
2022-11-17T15:21:44.513Z,10.95
2022-11-17T15:24:14.262Z,10.93
2022-11-17T15:26:44.454Z,10.98
2022-11-17T15:29:15.278Z,10.95
2022-11-17T15:31:43.641Z,10.93
2022-11-17T15:34:15.674Z,11.03
2022-11-17T15:36:47.930Z,10.93
2022-11-17T15:39:17.964Z,11.14
2022-11-17T15:41:46.450Z,11.12
2022-11-17T15:44:14.911Z,11.13
2022-11-17T15:46:47.329Z,11.25
2022-11-17T15:49:16.091Z,11.20
2022-11-17T15:51:44.342Z,11.11
2022-11-17T15:54:18.484Z,11.11
2022-11-17T15:56:50.940Z,11.11
2022-11-17T15:59:19.471Z,11.20
2022-11-17T16:01:47.902Z,11.16
2022-11-17T16:04:16.761Z,11.19
2022-11-17T16:06:46.338Z,11.19
2022-11-17T16:09:15.766Z,11.25
2022-11-17T16:11:44.655Z,11.23
2022-11-17T16:14:14.944Z,11.22
2022-11-17T16:16:43.803Z,11.18
2022-11-17T16:19:11.875Z,11.14
2022-11-17T16:21:39.968Z,11.14
2022-11-17T16:24:11.440Z,11.11
2022-11-17T16:26:39.618Z,11.12
2022-11-17T16:29:08.929Z,11.25
2022-11-17T16:31:38.976Z,11.26
2022-11-17T16:34:09.022Z,11.08
2022-11-17T16:36:39.942Z,11.09
2022-11-17T16:39:10.231Z,11.12
2022-11-17T16:41:40.855Z,11.11
2022-11-17T16:44:11.856Z,10.99
2022-11-17T16:46:43.590Z,10.98
2022-11-17T16:49:14.701Z,11.07
2022-11-17T16:51:48.361Z,11.30
2022-11-17T16:54:16.701Z,11.28
2022-11-17T16:56:44.923Z,11.31
2022-11-17T16:59:13.343Z,11.40
2022-11-17T17:01:42.981Z,11.37
2022-11-17T17:04:12.857Z,11.38
2022-11-17T17:06:41.855Z,11.47
2022-11-17T17:09:12.096Z,11.54
2022-11-17T17:11:40.781Z,11.53
2022-11-17T17:14:12.578Z,11.61
2022-11-17T17:16:43.744Z,11.55
2022-11-17T17:19:13.482Z,11.60
2022-11-17T17:21:43.698Z,11.55
2022-11-17T17:24:12.201Z,11.51
2022-11-17T17:26:41.152Z,11.54
2022-11-17T17:29:09.714Z,11.52
2022-11-17T17:31:40.107Z,11.56
2022-11-17T17:34:10.130Z,11.56
2022-11-17T17:36:38.640Z,11.45
2022-11-17T17:39:07.717Z,11.40
2022-11-17T17:41:41.014Z,11.47
2022-11-17T17:44:09.518Z,11.38
2022-11-17T17:46:39.147Z,11.34
2022-11-17T17:49:08.913Z,11.52
2022-11-17T17:51:40.105Z,11.60
2022-11-17T17:54:08.491Z,11.55
2022-11-17T17:56:36.562Z,11.77
2022-11-17T17:59:04.642Z,11.58
2022-11-17T18:01:34.132Z,11.53
2022-11-17T18:04:04.814Z,11.64
2022-11-17T18:06:37.424Z,11.67
2022-11-17T18:09:06.378Z,11.70
2022-11-17T18:11:34.674Z,11.72
2022-11-17T18:14:03.062Z,11.31
2022-11-17T18:16:33.301Z,11.62
2022-11-17T18:19:02.669Z,11.52
2022-11-17T18:21:31.130Z,11.66
2022-11-17T18:24:03.073Z,11.66
2022-11-17T18:26:33.184Z,11.53
2022-11-17T18:29:02.650Z,11.55
2022-11-17T18:31:32.343Z,11.56
2022-11-17T18:34:02.412Z,11.68
2022-11-17T18:36:31.705Z,11.70
2022-11-17T18:39:01.222Z,11.70
2022-11-17T18:41:30.913Z,11.77
2022-11-17T18:43:59.214Z,11.77
2022-11-17T18:46:29.406Z,11.69
2022-11-17T18:48:57.998Z,11.70
2022-11-17T18:51:27.746Z,11.44
2022-11-17T18:53:57.438Z,11.56
2022-11-17T18:56:29.359Z,11.53
2022-11-17T18:58:57.614Z,11.56
2022-11-17T19:01:27.947Z,11.61
2022-11-17T19:03:58.076Z,11.76
2022-11-17T19:06:26.861Z,11.64
2022-11-17T19:08:55.190Z,11.82
2022-11-17T19:11:24.021Z,11.66
2022-11-17T19:13:53.430Z,11.78
2022-11-17T19:16:23.724Z,11.81
2022-11-17T19:18:53.564Z,11.59
2022-11-17T19:21:23.548Z,11.62
2022-11-17T19:23:52.475Z,11.68
2022-11-17T19:26:22.103Z,11.75
2022-11-17T19:28:50.859Z,11.76
2022-11-17T19:31:21.223Z,11.82
2022-11-17T19:33:50.157Z,11.73
2022-11-17T19:36:20.185Z,11.79
2022-11-17T19:38:50.061Z,11.89
2022-11-17T19:41:20.399Z,11.79
2022-11-17T19:43:50.159Z,11.74
2022-11-17T19:46:18.351Z,11.69
2022-11-17T19:48:47.866Z,11.81
2022-11-17T19:51:18.621Z,11.74
2022-11-17T19:53:47.195Z,11.66
2022-11-17T19:56:15.377Z,11.68
2022-11-17T19:58:43.800Z,11.72
2022-11-17T20:01:13.787Z,11.68
2022-11-17T20:03:43.039Z,11.67
2022-11-17T20:06:13.718Z,11.72
2022-11-17T20:08:42.045Z,11.77
2022-11-17T20:11:12.402Z,11.62
2022-11-17T20:13:41.482Z,11.63
2022-11-17T20:16:12.756Z,11.63
2022-11-17T20:18:41.793Z,11.63
2022-11-17T20:21:13.972Z,11.69
2022-11-17T20:23:43.519Z,11.67
2022-11-17T20:26:14.114Z,11.61
2022-11-17T20:28:42.333Z,11.66
2022-11-17T20:31:12.024Z,11.75
2022-11-17T20:33:41.015Z,11.67
2022-11-17T20:36:11.963Z,11.70
2022-11-17T20:38:41.522Z,11.55
2022-11-17T20:41:10.294Z,11.56
2022-11-17T20:43:38.534Z,11.54
2022-11-17T20:46:06.918Z,11.58
2022-11-17T20:48:35.981Z,11.60
2022-11-17T20:51:06.190Z,11.58
2022-11-17T20:53:34.762Z,11.69
2022-11-17T20:56:06.576Z,11.79
2022-11-17T20:58:34.878Z,11.78
2022-11-17T21:01:09.409Z,11.79
2022-11-17T21:03:37.743Z,11.76
2022-11-17T21:06:06.414Z,11.77
2022-11-17T21:08:36.174Z,11.59
2022-11-17T21:11:07.121Z,11.52
2022-11-17T21:13:36.945Z,11.58
2022-11-17T21:16:10.563Z,11.53
2022-11-17T21:18:40.090Z,11.44
2022-11-17T21:21:09.661Z,11.37
2022-11-17T21:23:38.293Z,11.58
2022-11-17T21:26:08.710Z,11.59
2022-11-17T21:28:38.278Z,11.68
2022-11-17T21:31:10.421Z,11.73
2022-11-17T21:33:39.534Z,11.81
2022-11-17T21:36:09.359Z,11.84
2022-11-17T21:38:37.867Z,11.83
2022-11-17T21:41:09.237Z,11.78
2022-11-17T21:43:37.917Z,11.87
2022-11-17T21:46:07.796Z,12.07
2022-11-17T21:48:36.548Z,11.79
2022-11-17T21:51:04.954Z,11.74
2022-11-17T21:53:33.178Z,11.62
2022-11-17T21:56:02.402Z,11.69
2022-11-17T21:58:31.996Z,11.74
2022-11-17T22:01:06.349Z,11.74
2022-11-17T22:03:34.579Z,11.74
2022-11-17T22:06:15.103Z,11.66
2022-11-17T22:08:44.689Z,11.63
2022-11-17T22:11:13.992Z,11.55
2022-11-17T22:13:43.846Z,11.61
2022-11-17T22:16:13.270Z,11.74
2022-11-17T22:18:42.243Z,11.64
2022-11-17T22:21:10.273Z,11.67
2022-11-17T22:23:38.394Z,11.73
2022-11-17T22:26:07.406Z,11.72
2022-11-17T22:28:35.414Z,11.74
2022-11-17T22:31:08.090Z,11.76
2022-11-17T22:33:39.999Z,11.77
2022-11-17T22:36:09.265Z,11.74
2022-11-17T22:38:37.298Z,11.71
2022-11-17T22:41:07.393Z,11.47
2022-11-17T22:43:35.502Z,11.64
2022-11-17T22:46:05.687Z,11.57
2022-11-17T22:48:36.747Z,11.66
2022-11-17T22:51:05.793Z,11.59
2022-11-17T22:53:34.390Z,11.58
2022-11-17T22:56:04.476Z,11.57
2022-11-17T22:58:32.830Z,11.62
2022-11-17T23:01:05.319Z,11.63
2022-11-17T23:03:35.058Z,11.61
2022-11-17T23:06:03.707Z,11.62
2022-11-17T23:08:32.201Z,11.55
2022-11-17T23:11:34.848Z,11.60
2022-11-17T23:13:51.594Z,11.56
2022-11-17T23:16:19.693Z,11.38
2022-11-17T23:18:49.106Z,11.58
2022-11-17T23:21:17.142Z,11.32
2022-11-17T23:23:45.194Z,11.42
2022-11-17T23:26:13.771Z,11.40
2022-11-17T23:28:43.318Z,11.53
2022-11-17T23:31:13.595Z,11.51
2022-11-17T23:33:43.193Z,11.45
2022-11-17T23:36:15.662Z,11.40
2022-11-17T23:38:44.453Z,11.31
2022-11-17T23:41:15.084Z,11.40
2022-11-17T23:43:43.535Z,11.47
2022-11-17T23:46:14.025Z,11.41
2022-11-17T23:48:42.293Z,11.45
2022-11-17T23:51:12.839Z,11.42
2022-11-17T23:53:42.523Z,11.41
2022-11-17T23:56:11.948Z,11.39
2022-11-17T23:58:40.262Z,11.47
